Time;durP1;ratioP1;P1;durP2;ratioP2;P2;SDS_P1;SDS_P2;PMS_P1;PMS_P2;Temp;Humidity;BMP_temperature;BMP_pressure;BME280_temperature;BME280_humidity;BME280_pressure;Samples;Min_cycle;Max_cycle;Signal;HPM_P1;HPM_P2
2023/05/04 00:02:17;;;;;;;;;;;;;;;;;;5094359;28;19912;-30
2023/05/04 00:04:43;;;;;;;;;;;;;;;;;;5094548;28;19908;-28
2023/05/04 00:07:09;;;;;;;;;;;;;;;;;;5095166;28;19965;-26
2023/05/04 00:09:35;;;;;;;;;;;;;;;;;;5094414;28;19939;-26
2023/05/04 00:12:01;;;;;;;;;;;;;;;;;;5094543;28;20250;-24
2023/05/04 00:14:27;;;;;;;;;;;;;;;;;;5094895;28;19998;-26
2023/05/04 00:16:53;;;;;;;;;;;;;;;;;;5094398;28;19915;-24
2023/05/04 00:19:19;;;;;;;;;;;;;;;;;;5094416;28;20304;-26
2023/05/04 00:21:45;;;;;;;;;;;;;;;;;;5098326;28;19945;-25
2023/05/04 00:24:11;;;;;;;;;;;;;;;;;;5098039;28;20195;-24
2023/05/04 00:26:37;;;;;;;;;;;;;;;;;;5098389;28;19926;-28
2023/05/04 00:29:03;;;;;;;;;;;;;;;;;;5098356;28;19935;-28
2023/05/04 00:31:29;;;;;;;;;;;;;;;;;;5098262;28;20338;-29
2023/05/04 00:33:55;;;;;;;;;;;;;;;;;;5098141;28;19970;-23
2023/05/04 00:36:21;;;;;;;;;;;;;;;;;;5097907;28;19909;-27
2023/05/04 00:38:50;;;;;;;;;;;;;;;;;;5097902;28;20397;-25
2023/05/04 00:41:16;;;;;;;;;;;;;;;;;;5097728;28;19912;-26
2023/05/04 00:43:42;;;;;;;;;;;;;;;;;;5097715;28;19923;-24
2023/05/04 00:46:08;;;;;;;;;;;;;;;;;;5097754;28;19951;-24
2023/05/04 00:48:34;;;;;;;;;;;;;;;;;;5097714;28;20309;-27
2023/05/04 00:51:00;;;;;;;;;;;;;;;;;;5097687;28;20335;-30
2023/05/04 00:53:26;;;;;;;;;;;;;;;;;;5097618;28;20040;-23
2023/05/04 00:55:52;;;;;;;;;;;;;;;;;;5097571;28;20339;-26
2023/05/04 00:58:18;;;;;;;;;;;;;;;;;;5097548;28;19908;-24
2023/05/04 01:00:44;;;;;;;;;;;;;;;;;;5097732;28;19915;-23
2023/05/04 01:03:10;;;;;;;;;;;;;;;;;;5097298;28;19922;-22
2023/05/04 01:05:36;;;;;;;;;;;;;;;;;;5097640;28;19938;-23
2023/05/04 01:08:02;;;;;;;;;;;;;;;;;;5097393;28;20383;-23
2023/05/04 01:10:28;;;;;;;;;;;;;;;;;;5097391;28;19928;-25
2023/05/04 01:12:53;;;;;;;;;;;;;;;;;;5097257;28;19908;-26
2023/05/04 01:15:20;;;;;;;;;;;;;;;;;;5097529;28;19908;-26
2023/05/04 01:17:46;;;;;;;;;;;;;;;;;;5097245;28;19908;-23
2023/05/04 01:20:12;;;;;;;;;;;;;;;;;;5096986;28;20007;-24
2023/05/04 01:22:38;;;;;;;;;;;;;;;;;;5097146;28;20006;-30
2023/05/04 01:25:04;;;;;;;;;;;;;;;;;;5097002;28;19947;-26
2023/05/04 01:27:30;;;;;;;;;;;;;;;;;;5097240;28;19919;-23
2023/05/04 01:29:56;;;;;;;;;;;;;;;;;;5096939;28;19920;-27
2023/05/04 01:32:22;;;;;;;;;;;;;;;;;;5096617;28;20350;-25
2023/05/04 01:34:48;;;;;;;;;;;;;;;;;;5096842;28;19907;-26
2023/05/04 01:37:15;;;;;;;;;;;;;;;;;;5096825;28;19999;-25
2023/05/04 01:39:40;;;;;;;;;;;;;;;;;;5096671;28;19908;-27
2023/05/04 01:42:06;;;;;;;;;;;;;;;;;;5096789;28;19912;-25
2023/05/04 01:44:32;;;;;;;;;;;;;;;;;;5096634;28;19965;-22
2023/05/04 01:46:58;;;;;;;;;;;;;;;;;;5096870;28;19908;-25
2023/05/04 01:49:24;;;;;;;;;;;;;;;;;;5096819;28;20304;-24
2023/05/04 01:51:50;;;;;;;;;;;;;;;;;;5096699;28;19999;-24
2023/05/04 01:54:16;;;;;;;;;;;;;;;;;;5096452;28;20350;-26
2023/05/04 01:56:42;;;;;;;;;;;;;;;;;;5096392;28;19955;-24
2023/05/04 01:59:08;;;;;;;;;;;;;;;;;;5096601;28;19919;-27
2023/05/04 02:01:35;;;;;;;;;;;;;;;;;;5096225;28;19912;-26
2023/05/04 02:04:01;;;;;;;;;;;;;;;;;;5096167;28;19994;-22
2023/05/04 02:06:27;;;;;;;;;;;;;;;;;;5096252;28;19978;-25
2023/05/04 02:08:53;;;;;;;;;;;;;;;;;;5096427;28;19915;-25
2023/05/04 02:11:19;;;;;;;;;;;;;;;;;;5096100;28;19964;-29
2023/05/04 02:13:45;;;;;;;;;;;;;;;;;;5096469;28;19922;-24
2023/05/04 02:16:11;;;;;;;;;;;;;;;;;;5095980;28;19912;-23
2023/05/04 02:18:37;;;;;;;;;;;;;;;;;;5095932;28;20278;-28
2023/05/04 02:21:03;;;;;;;;;;;;;;;;;;5094657;28;20334;-26
2023/05/04 02:23:29;;;;;;;;;;;;;;;;;;5095915;28;19908;-28
2023/05/04 02:25:55;;;;;;;;;;;;;;;;;;5096128;28;20003;-24
2023/05/04 02:28:21;;;;;;;;;;;;;;;;;;5095837;28;19908;-25
2023/05/04 02:30:47;;;;;;;;;;;;;;;;;;5096020;28;20342;-23
2023/05/04 02:33:13;;;;;;;;;;;;;;;;;;5095675;28;20343;-25
2023/05/04 02:35:39;;;;;;;;;;;;;;;;;;5095901;28;19940;-26
2023/05/04 02:38:05;;;;;;;;;;;;;;;;;;5095875;28;19942;-26
2023/05/04 02:40:31;;;;;;;;;;;;;;;;;;5095596;28;19908;-29
2023/05/04 02:42:57;;;;;;;;;;;;;;;;;;5094570;28;20019;-23
2023/05/04 02:45:23;;;;;;;;;;;;;;;;;;5095725;28;19999;-24
2023/05/04 02:47:49;;;;;;;;;;;;;;;;;;5095475;28;19991;-24
2023/05/04 02:50:15;;;;;;;;;;;;;;;;;;5095462;28;19908;-25
2023/05/04 02:52:41;;;;;;;;;;;;;;;;;;5095298;28;19908;-25
2023/05/04 02:55:07;;;;;;;;;;;;;;;;;;5095387;28;19914;-27
2023/05/04 02:57:32;;;;;;;;;;;;;;;;;;5095578;28;19915;-27
2023/05/04 02:59:58;;;;;;;;;;;;;;;;;;5094244;28;19908;-25
2023/05/04 03:02:24;;;;;;;;;;;;;;;;;;5095374;28;19916;-27
2023/05/04 03:04:50;;;;;;;;;;;;;;;;;;5095173;28;20227;-25
2023/05/04 03:07:16;;;;;;;;;;;;;;;;;;5095425;28;19908;-23
2023/05/04 03:09:42;;;;;;;;;;;;;;;;;;5095340;28;19944;-26
2023/05/04 03:12:08;;;;;;;;;;;;;;;;;;5095225;28;19956;-26
2023/05/04 03:14:34;;;;;;;;;;;;;;;;;;5095072;28;19914;-24
2023/05/04 03:17:00;;;;;;;;;;;;;;;;;;5095251;28;19915;-25
2023/05/04 03:19:26;;;;;;;;;;;;;;;;;;5094982;28;19908;-23
2023/05/04 03:21:52;;;;;;;;;;;;;;;;;;5094803;28;19935;-27
2023/05/04 03:24:18;;;;;;;;;;;;;;;;;;5095166;28;19908;-23
2023/05/04 03:26:45;;;;;;;;;;;;;;;;;;5094912;28;19911;-24
2023/05/04 03:29:11;;;;;;;;;;;;;;;;;;5095093;28;19919;-23
2023/05/04 03:31:38;;;;;;;;;;;;;;;;;;5094742;28;20196;-24
2023/05/04 03:34:04;;;;;;;;;;;;;;;;;;5093663;28;19987;-23
2023/05/04 03:36:30;;;;;;;;;;;;;;;;;;5093725;28;20389;-23
2023/05/04 03:38:56;;;;;;;;;;;;;;;;;;5094645;28;19912;-23
2023/05/04 03:41:21;;;;;;;;;;;;;;;;;;5094855;28;19958;-24
2023/05/04 03:43:47;;;;;;;;;;;;;;;;;;5094500;28;20003;-25
2023/05/04 03:46:13;;;;;;;;;;;;;;;;;;5094556;28;19908;-26
2023/05/04 03:48:39;;;;;;;;;;;;;;;;;;5094518;28;19908;-26
2023/05/04 03:51:05;;;;;;;;;;;;;;;;;;5094513;28;19962;-28
2023/05/04 03:53:34;;;;;;;;;;;;;;;;;;5093438;28;19908;-23
2023/05/04 03:56:00;;;;;;;;;;;;;;;;;;5098513;28;19909;-25
2023/05/04 03:58:26;;;;;;;;;;;;;;;;;;5098683;28;20010;-26
2023/05/04 04:03:28;;;;;;;;;;;;;;;;;;5309011;22;20355;-23
2023/05/04 04:05:53;;;;;;;;;;;;;;;;;;5038674;28;20051;-23
2023/05/04 04:08:19;;;;;;;;;;;;;;;;;;5037717;28;19916;-24
2023/05/04 04:10:45;;;;;;;;;;;;;;;;;;5037783;28;20355;-24
2023/05/04 04:13:11;;;;;;;;;;;;;;;;;;5037850;28;19909;-23
2023/05/04 04:15:38;;;;;;;;;;;;;;;;;;5037826;28;19909;-24
2023/05/04 04:18:04;;;;;;;;;;;;;;;;;;5037916;28;20058;-24
2023/05/04 04:20:30;;;;;;;;;;;;;;;;;;5037747;28;19909;-24
2023/05/04 04:22:56;;;;;;;;;;;;;;;;;;5037457;28;20357;-24
2023/05/04 04:25:23;;;;;;;;;;;;;;;;;;5036590;28;19932;-24
2023/05/04 04:27:49;;;;;;;;;;;;;;;;;;5037514;28;19909;-24
2023/05/04 04:30:15;;;;;;;;;;;;;;;;;;5037589;28;19909;-24
2023/05/04 04:32:41;;;;;;;;;;;;;;;;;;5036207;28;19909;-24
2023/05/04 04:35:07;;;;;;;;;;;;;;;;;;5037456;28;20173;-23
2023/05/04 04:37:33;;;;;;;;;;;;;;;;;;5036148;28;20051;-24
2023/05/04 04:40:00;;;;;;;;;;;;;;;;;;5036988;28;19966;-23
2023/05/04 04:42:26;;;;;;;;;;;;;;;;;;5036976;28;19924;-24
2023/05/04 04:44:52;;;;;;;;;;;;;;;;;;5037536;28;19909;-24
2023/05/04 04:47:18;;;;;;;;;;;;;;;;;;5037449;28;20283;-24
2023/05/04 04:49:44;;;;;;;;;;;;;;;;;;5037133;28;19919;-24
2023/05/04 04:52:10;;;;;;;;;;;;;;;;;;5036937;28;19909;-24
2023/05/04 04:54:36;;;;;;;;;;;;;;;;;;5037341;28;20358;-24
2023/05/04 04:57:02;;;;;;;;;;;;;;;;;;5035918;28;19920;-24
2023/05/04 04:59:28;;;;;;;;;;;;;;;;;;5036870;28;19916;-23
2023/05/04 05:01:56;;;;;;;;;;;;;;;;;;5036710;28;20392;-24
2023/05/04 05:04:22;;;;;;;;;;;;;;;;;;5035522;28;20312;-24
2023/05/04 05:06:48;;;;;;;;;;;;;;;;;;5035923;28;19959;-24
2023/05/04 05:09:14;;;;;;;;;;;;;;;;;;5037361;28;19916;-24
2023/05/04 05:11:40;;;;;;;;;;;;;;;;;;5036816;28;19928;-24
2023/05/04 05:14:06;;;;;;;;;;;;;;;;;;5036779;28;19909;-24
2023/05/04 05:16:32;;;;;;;;;;;;;;;;;;5036840;28;19913;-24
2023/05/04 05:18:58;;;;;;;;;;;;;;;;;;5036440;28;19917;-25
2023/05/04 05:21:24;;;;;;;;;;;;;;;;;;5035558;28;19953;-24
2023/05/04 05:23:50;;;;;;;;;;;;;;;;;;5036787;28;19928;-24
2023/05/04 05:26:16;;;;;;;;;;;;;;;;;;5035582;28;19952;-24
2023/05/04 05:28:42;;;;;;;;;;;;;;;;;;5036606;28;20000;-24
2023/05/04 05:31:08;;;;;;;;;;;;;;;;;;5036560;28;19909;-24
2023/05/04 05:33:34;;;;;;;;;;;;;;;;;;5036432;28;19937;-23
2023/05/04 05:36:00;;;;;;;;;;;;;;;;;;5036408;28;20339;-24
2023/05/04 05:38:26;;;;;;;;;;;;;;;;;;5035486;28;20304;-24
2023/05/04 05:40:52;;;;;;;;;;;;;;;;;;5036324;28;19909;-24
2023/05/04 05:43:18;;;;;;;;;;;;;;;;;;5036116;28;19940;-24
2023/05/04 05:45:44;;;;;;;;;;;;;;;;;;5036346;28;19913;-23
2023/05/04 05:48:10;;;;;;;;;;;;;;;;;;5035977;28;19910;-24
2023/05/04 05:50:36;;;;;;;;;;;;;;;;;;5036141;28;19917;-24
2023/05/04 05:53:02;;;;;;;;;;;;;;;;;;5036356;28;19912;-24
2023/05/04 05:55:28;;;;;;;;;;;;;;;;;;5036570;28;20342;-24
2023/05/04 05:57:54;;;;;;;;;;;;;;;;;;5036174;28;19909;-23
2023/05/04 06:00:20;;;;;;;;;;;;;;;;;;5035945;28;19919;-23
2023/05/04 06:02:45;;;;;;;;;;;;;;;;;;5035213;28;19976;-23
2023/05/04 06:05:11;;;;;;;;;;;;;;;;;;5036286;28;19905;-23
2023/05/04 06:07:37;;;;;;;;;;;;;;;;;;5035572;28;19920;-23
2023/05/04 06:10:04;;;;;;;;;;;;;;;;;;5035561;28;19905;-23
2023/05/04 06:12:30;;;;;;;;;;;;;;;;;;5035295;28;19917;-24
2023/05/04 06:14:56;;;;;;;;;;;;;;;;;;5035274;28;20007;-24
2023/05/04 06:17:22;;;;;;;;;;;;;;;;;;5035179;28;19910;-24
2023/05/04 06:19:49;;;;;;;;;;;;;;;;;;5035502;28;19916;-23
2023/05/04 06:22:16;;;;;;;;;;;;;;;;;;5035333;28;19912;-24
2023/05/04 06:24:42;;;;;;;;;;;;;;;;;;5035122;28;19909;-24
2023/05/04 06:27:08;;;;;;;;;;;;;;;;;;5035299;28;19909;-23
2023/05/04 06:29:37;;;;;;;;;;;;;;;;;;5035038;28;19909;-24
2023/05/04 06:32:02;;;;;;;;;;;;;;;;;;5034825;28;19909;-24
2023/05/04 06:34:29;;;;;;;;;;;;;;;;;;5034951;28;19909;-24
2023/05/04 06:36:55;;;;;;;;;;;;;;;;;;5035023;28;20362;-24
2023/05/04 06:39:21;;;;;;;;;;;;;;;;;;5035194;28;19999;-24
2023/05/04 06:41:47;;;;;;;;;;;;;;;;;;5034932;28;19979;-24
2023/05/04 06:44:13;;;;;;;;;;;;;;;;;;5034069;28;19916;-24
2023/05/04 06:46:39;;;;;;;;;;;;;;;;;;5035028;28;20256;-24
2023/05/04 06:49:05;;;;;;;;;;;;;;;;;;5033856;28;19953;-24
2023/05/04 06:51:31;;;;;;;;;;;;;;;;;;5035024;28;19947;-24
2023/05/04 06:53:59;;;;;;;;;;;;;;;;;;5034751;28;19966;-24
2023/05/04 06:56:25;;;;;;;;;;;;;;;;;;5034986;28;19905;-24
2023/05/04 06:58:51;;;;;;;;;;;;;;;;;;5034653;28;19919;-24
2023/05/04 07:01:17;;;;;;;;;;;;;;;;;;5034503;28;20235;-24
2023/05/04 07:03:43;;;;;;;;;;;;;;;;;;5034329;28;19999;-24
2023/05/04 07:06:09;;;;;;;;;;;;;;;;;;5034805;28;20272;-24
2023/05/04 07:08:35;;;;;;;;;;;;;;;;;;5033507;28;19927;-24
2023/05/04 07:11:01;;;;;;;;;;;;;;;;;;5034394;28;19909;-24
2023/05/04 07:13:27;;;;;;;;;;;;;;;;;;5034543;28;19909;-24
2023/05/04 07:15:53;;;;;;;;;;;;;;;;;;5034266;28;20208;-24
2023/05/04 07:18:19;;;;;;;;;;;;;;;;;;5034612;28;19909;-24
2023/05/04 07:20:45;;;;;;;;;;;;;;;;;;5034420;28;19959;-24
2023/05/04 07:23:11;;;;;;;;;;;;;;;;;;5034122;28;19999;-24
2023/05/04 07:25:37;;;;;;;;;;;;;;;;;;5034310;28;19909;-24
2023/05/04 07:28:03;;;;;;;;;;;;;;;;;;5034242;28;19984;-24
2023/05/04 07:30:29;;;;;;;;;;;;;;;;;;5033955;28;19909;-23
2023/05/04 07:32:55;;;;;;;;;;;;;;;;;;5034108;28;20268;-23
2023/05/04 07:35:21;;;;;;;;;;;;;;;;;;5033251;28;19913;-23
2023/05/04 07:37:47;;;;;;;;;;;;;;;;;;5034486;28;19920;-24
2023/05/04 07:40:13;;;;;;;;;;;;;;;;;;5034143;28;19913;-24
2023/05/04 07:42:39;;;;;;;;;;;;;;;;;;5034014;28;19971;-25
2023/05/04 07:45:07;;;;;;;;;;;;;;;;;;5034076;28;19936;-25
2023/05/04 07:47:33;;;;;;;;;;;;;;;;;;5033997;28;19913;-24
2023/05/04 07:49:59;;;;;;;;;;;;;;;;;;5034009;28;19910;-23
2023/05/04 07:52:24;;;;;;;;;;;;;;;;;;5033836;28;19909;-23
2023/05/04 07:54:50;;;;;;;;;;;;;;;;;;5033891;28;19909;-23
2023/05/04 07:57:16;;;;;;;;;;;;;;;;;;5033968;28;19915;-23
2023/05/04 07:59:42;;;;;;;;;;;;;;;;;;5033907;28;19932;-23
2023/05/04 08:02:09;;;;;;;;;;;;;;;;;;5032382;28;19975;-23
2023/05/04 08:04:35;;;;;;;;;;;;;;;;;;5033649;28;19939;-23
2023/05/04 08:07:01;;;;;;;;;;;;;;;;;;5033983;28;20354;-25
2023/05/04 08:09:27;;;;;;;;;;;;;;;;;;5034193;28;19936;-29
2023/05/04 08:11:52;;;;;;;;;;;;;;;;;;5033820;28;19920;-25
2023/05/04 08:14:18;;;;;;;;;;;;;;;;;;5034279;28;20000;-25
2023/05/04 08:16:44;;;;;;;;;;;;;;;;;;5033678;28;19909;-25
2023/05/04 08:19:11;;;;;;;;;;;;;;;;;;5032877;28;19916;-25
2023/05/04 08:21:39;;;;;;;;;;;;;;;;;;5033961;28;20366;-25
2023/05/04 08:24:05;;;;;;;;;;;;;;;;;;5033821;28;19920;-24
2023/05/04 08:26:31;;;;;;;;;;;;;;;;;;5033746;28;19909;-25
2023/05/04 08:28:57;;;;;;;;;;;;;;;;;;5033692;28;19909;-25
2023/05/04 08:31:23;;;;;;;;;;;;;;;;;;5032593;28;19913;-23
2023/05/04 08:33:50;;;;;;;;;;;;;;;;;;5033577;28;20055;-23
2023/05/04 08:36:16;;;;;;;;;;;;;;;;;;5033653;28;19916;-23
2023/05/04 08:38:42;;;;;;;;;;;;;;;;;;5033804;28;19909;-23
2023/05/04 08:41:08;;;;;;;;;;;;;;;;;;5034627;28;19909;-23
2023/05/04 08:43:34;;;;;;;;;;;;;;;;;;5036779;28;19920;-23
2023/05/04 08:46:02;;;;;;;;;;;;;;;;;;5036879;28;20020;-23
2023/05/04 08:48:27;;;;;;;;;;;;;;;;;;5037238;28;19959;-23
2023/05/04 08:50:53;;;;;;;;;;;;;;;;;;5036846;28;20225;-23
2023/05/04 08:53:20;;;;;;;;;;;;;;;;;;5036797;28;20012;-23
2023/05/04 08:55:46;;;;;;;;;;;;;;;;;;5036807;28;19963;-23
2023/05/04 08:58:12;;;;;;;;;;;;;;;;;;5036717;28;19927;-23
2023/05/04 09:00:38;;;;;;;;;;;;;;;;;;5036622;28;19999;-23
2023/05/04 09:03:04;;;;;;;;;;;;;;;;;;5035295;28;19921;-23
2023/05/04 09:05:30;;;;;;;;;;;;;;;;;;5036509;28;19933;-23
2023/05/04 09:07:56;;;;;;;;;;;;;;;;;;5036453;28;19909;-23
2023/05/04 09:10:22;;;;;;;;;;;;;;;;;;5035432;28;20486;-23
2023/05/04 09:12:49;;;;;;;;;;;;;;;;;;5035246;28;20251;-24
2023/05/04 09:15:16;;;;;;;;;;;;;;;;;;5036570;28;19912;-23
2023/05/04 09:17:42;;;;;;;;;;;;;;;;;;5035082;28;19936;-23
2023/05/04 09:20:08;;;;;;;;;;;;;;;;;;5036554;28;20340;-23
2023/05/04 09:22:34;;;;;;;;;;;;;;;;;;5036145;28;19925;-23
2023/05/04 09:25:00;;;;;;;;;;;;;;;;;;5036461;28;20252;-23
2023/05/04 09:27:26;;;;;;;;;;;;;;;;;;5036010;28;19932;-23
2023/05/04 09:29:52;;;;;;;;;;;;;;;;;;5037023;28;19913;-21
2023/05/04 09:32:18;;;;;;;;;;;;;;;;;;5036710;28;19909;-23
2023/05/04 09:34:44;;;;;;;;;;;;;;;;;;5036603;28;20261;-23
2023/05/04 09:37:10;;;;;;;;;;;;;;;;;;5036544;28;19909;-23
2023/05/04 09:39:36;;;;;;;;;;;;;;;;;;5036802;28;20362;-25
2023/05/04 09:42:03;;;;;;;;;;;;;;;;;;5036418;28;19928;-25
2023/05/04 09:44:29;;;;;;;;;;;;;;;;;;5036368;28;20358;-24
2023/05/04 09:46:55;;;;;;;;;;;;;;;;;;5036292;28;19909;-22
2023/05/04 09:49:22;;;;;;;;;;;;;;;;;;5035344;28;19948;-22
2023/05/04 09:51:47;;;;;;;;;;;;;;;;;;5035778;28;19920;-22
2023/05/04 09:54:13;;;;;;;;;;;;;;;;;;5036381;28;19909;-22
2023/05/04 09:56:40;;;;;;;;;;;;;;;;;;5036024;28;19916;-22
2023/05/04 09:59:06;;;;;;;;;;;;;;;;;;5036148;28;19977;-23
2023/05/04 10:01:32;;;;;;;;;;;;;;;;;;5035761;28;20019;-23
2023/05/04 10:03:58;;;;;;;;;;;;;;;;;;5035814;28;19957;-23
2023/05/04 10:06:24;;;;;;;;;;;;;;;;;;5034783;28;19909;-23
2023/05/04 10:08:50;;;;;;;;;;;;;;;;;;5035808;28;20243;-23
2023/05/04 10:11:17;;;;;;;;;;;;;;;;;;5035547;28;19916;-23
2023/05/04 10:13:43;;;;;;;;;;;;;;;;;;5035785;28;19913;-23
2023/05/04 10:16:09;;;;;;;;;;;;;;;;;;5035635;28;20210;-24
2023/05/04 10:18:35;;;;;;;;;;;;;;;;;;5035459;28;20019;-23
2023/05/04 10:21:01;;;;;;;;;;;;;;;;;;5035796;28;20231;-23
2023/05/04 10:23:28;;;;;;;;;;;;;;;;;;5035559;28;20263;-23
2023/05/04 10:25:54;;;;;;;;;;;;;;;;;;5035587;28;19909;-23
2023/05/04 10:28:20;;;;;;;;;;;;;;;;;;5034655;28;19921;-23
2023/05/04 10:30:46;;;;;;;;;;;;;;;;;;5035057;28;19909;-23
2023/05/04 10:33:12;;;;;;;;;;;;;;;;;;5034890;28;19913;-23
2023/05/04 10:35:38;;;;;;;;;;;;;;;;;;5035018;28;19931;-23
2023/05/04 10:38:05;;;;;;;;;;;;;;;;;;5035176;28;19909;-23
2023/05/04 10:40:31;;;;;;;;;;;;;;;;;;5035255;28;20038;-23
2023/05/04 10:42:57;;;;;;;;;;;;;;;;;;5034915;28;20356;-23
2023/05/04 10:45:23;;;;;;;;;;;;;;;;;;5034972;28;19920;-23
2023/05/04 10:47:49;;;;;;;;;;;;;;;;;;5035163;28;19909;-23
2023/05/04 10:50:15;;;;;;;;;;;;;;;;;;5034067;28;19909;-23
2023/05/04 10:52:41;;;;;;;;;;;;;;;;;;5034926;28;20355;-23
2023/05/04 10:55:07;;;;;;;;;;;;;;;;;;5034854;28;19948;-32
2023/05/04 10:57:34;;;;;;;;;;;;;;;;;;5034573;28;19912;-23
2023/05/04 11:00:00;;;;;;;;;;;;;;;;;;5034419;28;20347;-25
2023/05/04 11:02:26;;;;;;;;;;;;;;;;;;5033764;28;19913;-24
2023/05/04 11:04:52;;;;;;;;;;;;;;;;;;5032379;28;19916;-25
2023/05/04 11:07:18;;;;;;;;;;;;;;;;;;5034005;28;19920;-24
2023/05/04 11:09:44;;;;;;;;;;;;;;;;;;5034002;28;19917;-24
2023/05/04 11:12:10;;;;;;;;;;;;;;;;;;5034168;28;19916;-24
2023/05/04 11:14:40;;;;;;;;;;;;;;;;;;5034423;28;19909;-24
2023/05/04 11:17:06;;;;;;;;;;;;;;;;;;5034004;28;19935;-24
2023/05/04 11:19:32;;;;;;;;;;;;;;;;;;5034056;28;20284;-24
2023/05/04 11:22:00;;;;;;;;;;;;;;;;;;5033206;28;19913;-24
2023/05/04 11:24:32;;;;;;;;;;;;;;;;;;5033981;28;20229;-24
2023/05/04 11:26:58;;;;;;;;;;;;;;;;;;5034769;28;19919;-24
2023/05/04 11:29:24;;;;;;;;;;;;;;;;;;5034490;28;20338;-24
2023/05/04 11:31:50;;;;;;;;;;;;;;;;;;5034496;28;19916;-25
2023/05/04 11:34:16;;;;;;;;;;;;;;;;;;5034743;28;19909;-24
2023/05/04 11:36:42;;;;;;;;;;;;;;;;;;5034694;28;20292;-24
2023/05/04 11:39:08;;;;;;;;;;;;;;;;;;5034274;28;20260;-24
2023/05/04 11:41:35;;;;;;;;;;;;;;;;;;5034435;28;19905;-23
2023/05/04 11:44:02;;;;;;;;;;;;;;;;;;5034142;28;19910;-24
2023/05/04 11:46:27;;;;;;;;;;;;;;;;;;5034599;28;19916;-24
2023/05/04 11:48:53;;;;;;;;;;;;;;;;;;5033187;28;19909;-24
2023/05/04 11:51:19;;;;;;;;;;;;;;;;;;5034558;28;19920;-24
2023/05/04 11:53:45;;;;;;;;;;;;;;;;;;5034588;28;19909;-24
2023/05/04 11:56:11;;;;;;;;;;;;;;;;;;5034480;28;19909;-24
2023/05/04 11:58:37;;;;;;;;;;;;;;;;;;5034340;28;19909;-22
2023/05/04 12:01:03;;;;;;;;;;;;;;;;;;5034769;28;19913;-24
2023/05/04 12:03:33;;;;;;;;;;;;;;;;;;5033846;28;19940;-24
2023/05/04 12:05:59;;;;;;;;;;;;;;;;;;5032978;28;20256;-24
2023/05/04 12:08:25;;;;;;;;;;;;;;;;;;5033961;28;19916;-24
2023/05/04 12:10:51;;;;;;;;;;;;;;;;;;5034131;28;19947;-24
2023/05/04 12:13:17;;;;;;;;;;;;;;;;;;5033702;28;19909;-24
2023/05/04 12:15:43;;;;;;;;;;;;;;;;;;5034729;28;19909;-24
2023/05/04 12:18:09;;;;;;;;;;;;;;;;;;5037938;28;20350;-25
2023/05/04 12:20:35;;;;;;;;;;;;;;;;;;5037779;28;19915;-24
2023/05/04 12:23:01;;;;;;;;;;;;;;;;;;5037655;28;19913;-25
2023/05/04 12:25:27;;;;;;;;;;;;;;;;;;5037843;28;19917;-24
2023/05/04 12:27:53;;;;;;;;;;;;;;;;;;5036725;28;19913;-24
2023/05/04 12:30:19;;;;;;;;;;;;;;;;;;5037606;28;19909;-24
2023/05/04 12:32:45;;;;;;;;;;;;;;;;;;5036640;28;19919;-24
2023/05/04 12:35:11;;;;;;;;;;;;;;;;;;5037586;28;20240;-24
2023/05/04 12:37:37;;;;;;;;;;;;;;;;;;5036675;28;20243;-23
2023/05/04 12:40:03;;;;;;;;;;;;;;;;;;5038038;28;19952;-24
2023/05/04 12:42:29;;;;;;;;;;;;;;;;;;5036409;28;20046;-23
2023/05/04 12:44:55;;;;;;;;;;;;;;;;;;5037389;28;20262;-24
2023/05/04 12:47:23;;;;;;;;;;;;;;;;;;5036253;28;19909;-24
2023/05/04 12:49:49;;;;;;;;;;;;;;;;;;5037531;28;19920;-27
2023/05/04 12:52:15;;;;;;;;;;;;;;;;;;5037364;28;20217;-25
2023/05/04 12:54:41;;;;;;;;;;;;;;;;;;5036190;28;19917;-24
2023/05/04 12:57:07;;;;;;;;;;;;;;;;;;5037368;28;19909;-24
2023/05/04 12:59:33;;;;;;;;;;;;;;;;;;5037287;28;20224;-24
2023/05/04 13:01:59;;;;;;;;;;;;;;;;;;5037074;28;19913;-24
2023/05/04 13:04:25;;;;;;;;;;;;;;;;;;5036888;28;19931;-24
2023/05/04 13:06:51;;;;;;;;;;;;;;;;;;5037043;28;19905;-24
2023/05/04 13:09:17;;;;;;;;;;;;;;;;;;5036974;28;19999;-24
2023/05/04 13:11:43;;;;;;;;;;;;;;;;;;5035699;28;19910;-24
2023/05/04 13:14:09;;;;;;;;;;;;;;;;;;5037448;28;19909;-24
2023/05/04 13:16:35;;;;;;;;;;;;;;;;;;5036657;28;20335;-24
2023/05/04 13:19:01;;;;;;;;;;;;;;;;;;5036947;28;20349;-24
2023/05/04 13:21:27;;;;;;;;;;;;;;;;;;5036714;28;19996;-24
2023/05/04 13:23:53;;;;;;;;;;;;;;;;;;5037050;28;19995;-24
2023/05/04 13:26:20;;;;;;;;;;;;;;;;;;5036229;28;19936;-24
2023/05/04 13:28:46;;;;;;;;;;;;;;;;;;5036324;28;19960;-24
2023/05/04 13:31:12;;;;;;;;;;;;;;;;;;5036741;28;20323;-25
2023/05/04 13:33:38;;;;;;;;;;;;;;;;;;5035559;28;19909;-24
2023/05/04 13:36:04;;;;;;;;;;;;;;;;;;5036438;28;19983;-24
2023/05/04 13:38:31;;;;;;;;;;;;;;;;;;5036747;28;19936;-24
2023/05/04 13:40:56;;;;;;;;;;;;;;;;;;5036193;28;20328;-24
2023/05/04 13:43:22;;;;;;;;;;;;;;;;;;5036328;28;20015;-24
2023/05/04 13:45:48;;;;;;;;;;;;;;;;;;5036309;28;19916;-24
2023/05/04 13:48:14;;;;;;;;;;;;;;;;;;5036460;28;19971;-24
2023/05/04 13:50:40;;;;;;;;;;;;;;;;;;5036276;28;20358;-25
2023/05/04 13:53:06;;;;;;;;;;;;;;;;;;5035855;28;20277;-22
2023/05/04 13:55:32;;;;;;;;;;;;;;;;;;5036061;28;19932;-25
2023/05/04 13:57:59;;;;;;;;;;;;;;;;;;5036141;28;19909;-22
2023/05/04 14:00:25;;;;;;;;;;;;;;;;;;5035732;28;19916;-22
2023/05/04 14:02:51;;;;;;;;;;;;;;;;;;5035494;28;19913;-22
2023/05/04 14:05:17;;;;;;;;;;;;;;;;;;5035796;28;19913;-22
2023/05/04 14:07:43;;;;;;;;;;;;;;;;;;5035719;28;19913;-22
2023/05/04 14:10:09;;;;;;;;;;;;;;;;;;5035744;28;19967;-23
2023/05/04 14:12:35;;;;;;;;;;;;;;;;;;5035521;28;20000;-22
2023/05/04 14:15:03;;;;;;;;;;;;;;;;;;5035489;28;20204;-23
2023/05/04 14:17:29;;;;;;;;;;;;;;;;;;5035833;28;19928;-22
2023/05/04 14:19:55;;;;;;;;;;;;;;;;;;5035303;28;19909;-23
2023/05/04 14:22:21;;;;;;;;;;;;;;;;;;5035229;28;19913;-22
2023/05/04 14:24:47;;;;;;;;;;;;;;;;;;5035222;28;19916;-22
2023/05/04 14:27:12;;;;;;;;;;;;;;;;;;5034123;28;19909;-22
2023/05/04 14:29:38;;;;;;;;;;;;;;;;;;5035364;28;19909;-22
2023/05/04 14:32:04;;;;;;;;;;;;;;;;;;5035311;28;20009;-22
2023/05/04 14:34:31;;;;;;;;;;;;;;;;;;5034193;28;19920;-22
2023/05/04 14:36:57;;;;;;;;;;;;;;;;;;5035424;28;19915;-22
2023/05/04 14:39:23;;;;;;;;;;;;;;;;;;5034015;28;20008;-22
2023/05/04 14:41:51;;;;;;;;;;;;;;;;;;5035241;28;19913;-22
2023/05/04 14:44:17;;;;;;;;;;;;;;;;;;5035132;28;19909;-22
2023/05/04 14:46:43;;;;;;;;;;;;;;;;;;5034947;28;19920;-22
2023/05/04 14:49:09;;;;;;;;;;;;;;;;;;5034937;28;19909;-22
2023/05/04 14:51:36;;;;;;;;;;;;;;;;;;5035114;28;19931;-22
2023/05/04 14:54:02;;;;;;;;;;;;;;;;;;5035141;28;20302;-22
2023/05/04 14:56:28;;;;;;;;;;;;;;;;;;5035006;28;19905;-23
2023/05/04 14:58:56;;;;;;;;;;;;;;;;;;5034692;28;19909;-23
2023/05/04 15:01:23;;;;;;;;;;;;;;;;;;5034791;28;19916;-22
2023/05/04 15:03:49;;;;;;;;;;;;;;;;;;5034131;28;19921;-23
2023/05/04 15:06:15;;;;;;;;;;;;;;;;;;5034814;28;19927;-23
2023/05/04 15:08:41;;;;;;;;;;;;;;;;;;5034542;28;19909;-24
2023/05/04 15:11:07;;;;;;;;;;;;;;;;;;5034276;28;19905;-24
2023/05/04 15:13:33;;;;;;;;;;;;;;;;;;5034264;28;19975;-23
2023/05/04 15:15:59;;;;;;;;;;;;;;;;;;5033850;28;19912;-23
2023/05/04 15:18:25;;;;;;;;;;;;;;;;;;5033667;28;19909;-23
2023/05/04 15:20:51;;;;;;;;;;;;;;;;;;5033864;28;20019;-23
2023/05/04 15:23:17;;;;;;;;;;;;;;;;;;5033831;28;19928;-24
2023/05/04 15:25:43;;;;;;;;;;;;;;;;;;5034013;28;20047;-23
2023/05/04 15:28:09;;;;;;;;;;;;;;;;;;5033709;28;20264;-23
2023/05/04 15:30:35;;;;;;;;;;;;;;;;;;5034017;28;19909;-23
2023/05/04 15:33:03;;;;;;;;;;;;;;;;;;5033642;28;19909;-23
2023/05/04 15:35:29;;;;;;;;;;;;;;;;;;5033690;28;19909;-23
2023/05/04 15:37:55;;;;;;;;;;;;;;;;;;5033951;28;19944;-22
2023/05/04 15:40:21;;;;;;;;;;;;;;;;;;5034187;28;19920;-23
2023/05/04 15:42:46;;;;;;;;;;;;;;;;;;5032884;28;19913;-23
2023/05/04 15:45:12;;;;;;;;;;;;;;;;;;5034024;28;19910;-23
2023/05/04 15:47:38;;;;;;;;;;;;;;;;;;5033253;28;19909;-23
2023/05/04 15:50:04;;;;;;;;;;;;;;;;;;5035329;28;19916;-23
2023/05/04 15:52:31;;;;;;;;;;;;;;;;;;5038515;28;19963;-23
2023/05/04 15:54:57;;;;;;;;;;;;;;;;;;5038611;28;19932;-22
2023/05/04 15:57:22;;;;;;;;;;;;;;;;;;5037178;28;19967;-23
2023/05/04 15:59:48;;;;;;;;;;;;;;;;;;5038385;28;20082;-23
2023/05/04 16:02:14;;;;;;;;;;;;;;;;;;5037896;28;19913;-23
2023/05/04 16:04:41;;;;;;;;;;;;;;;;;;5036783;28;19921;-23
2023/05/04 16:07:07;;;;;;;;;;;;;;;;;;5038207;28;19909;-23
2023/05/04 16:09:33;;;;;;;;;;;;;;;;;;5037006;28;20309;-23
2023/05/04 16:11:58;;;;;;;;;;;;;;;;;;5037641;28;20252;-22
2023/05/04 16:14:24;;;;;;;;;;;;;;;;;;5037561;28;19916;-23
2023/05/04 16:16:50;;;;;;;;;;;;;;;;;;5037915;28;19909;-23
2023/05/04 16:19:16;;;;;;;;;;;;;;;;;;5037813;28;19940;-23
2023/05/04 16:21:42;;;;;;;;;;;;;;;;;;5036421;28;19909;-23
2023/05/04 16:24:08;;;;;;;;;;;;;;;;;;5037459;28;19909;-24
2023/05/04 16:26:34;;;;;;;;;;;;;;;;;;5037627;28;20340;-24
2023/05/04 16:29:00;;;;;;;;;;;;;;;;;;5037101;28;19909;-23
2023/05/04 16:31:26;;;;;;;;;;;;;;;;;;5036507;28;19931;-24
2023/05/04 16:33:52;;;;;;;;;;;;;;;;;;5037588;28;19910;-24
2023/05/04 16:36:18;;;;;;;;;;;;;;;;;;5037445;28;19921;-24
2023/05/04 16:38:45;;;;;;;;;;;;;;;;;;5037294;28;19909;-24
2023/05/04 16:41:11;;;;;;;;;;;;;;;;;;5037750;28;19944;-23